Time;durP1;ratioP1;P1;durP2;ratioP2;P2;SDS_P1;SDS_P2;PMS_P1;PMS_P2;Temp;Humidity;BMP_temperature;BMP_pressure;BME280_temperature;BME280_humidity;BME280_pressure;Samples;Min_cycle;Max_cycle;Signal;HPM_P1;HPM_P2
2022/09/25 00:03:24;;;;;;;23.13;18.75;;;;;;;;;;12917121;23;20074;-81
2022/09/25 00:08:25;;;;;;;28.35;20.10;;;;;;;;;;12917877;22;20020;-78
2022/09/25 00:13:26;;;;;;;25.47;19.47;;;;;;;;;;12918395;22;20012;-86
2022/09/25 00:23:48;;;;;;;23.67;19.48;;;;;;;;;;12935216;23;20008;-82
2022/09/25 00:28:48;;;;;;;25.55;19.08;;;;;;;;;;12939995;22;20095;-83
2022/09/25 00:33:56;;;;;;;24.97;19.30;;;;;;;;;;12927154;23;20008;-85
2022/09/25 00:38:57;;;;;;;27.45;20.60;;;;;;;;;;12937632;22;20277;-84
2022/09/25 00:43:59;;;;;;;27.58;20.10;;;;;;;;;;12928971;22;20019;-81
2022/09/25 00:48:59;;;;;;;27.60;21.08;;;;;;;;;;12941166;22;20024;-83
2022/09/25 00:54:03;;;;;;;26.87;19.30;;;;;;;;;;12961647;22;20056;-83
2022/09/25 00:59:06;;;;;;;23.92;18.13;;;;;;;;;;13010862;22;20003;-85
2022/09/25 01:04:07;;;;;;;22.20;18.15;;;;;;;;;;13043165;22;20003;-85
2022/09/25 01:09:08;;;;;;;25.88;19.23;;;;;;;;;;13024341;22;20018;-84
2022/09/25 01:14:10;;;;;;;27.35;20.80;;;;;;;;;;13040353;22;19999;-85
2022/09/25 01:19:10;;;;;;;26.65;20.02;;;;;;;;;;13038806;22;20012;-84
2022/09/25 01:24:35;;;;;;;23.80;18.03;;;;;;;;;;13009454;22;20065;-83
2022/09/25 01:29:39;;;;;;;27.45;21.00;;;;;;;;;;12990371;22;20272;-85
2022/09/25 01:34:40;;;;;;;27.20;20.85;;;;;;;;;;12975086;22;20091;-88
2022/09/25 01:39:44;;;;;;;26.58;19.83;;;;;;;;;;13010636;22;20023;-88
2022/09/25 01:44:49;;;;;;;26.35;19.48;;;;;;;;;;13018715;22;20014;-89
2022/09/25 01:49:54;;;;;;;29.02;21.80;;;;;;;;;;13039882;22;20011;-86
2022/09/25 01:55:01;;;;;;;22.83;18.77;;;;;;;;;;13016398;22;20030;-86
2022/09/25 02:00:12;;;;;;;29.77;21.30;;;;;;;;;;13043738;22;20003;-89
2022/09/25 02:05:16;;;;;;;26.80;20.15;;;;;;;;;;13021324;22;20020;-81
2022/09/25 02:10:19;;;;;;;28.00;20.77;;;;;;;;;;13024222;22;20015;-81
2022/09/25 02:15:23;;;;;;;31.33;23.58;;;;;;;;;;13010088;22;20023;-81
2022/09/25 02:20:31;;;;;;;28.80;21.70;;;;;;;;;;13043426;22;19999;-83
2022/09/25 02:25:32;;;;;;;30.38;22.85;;;;;;;;;;13045694;22;20864;-81
2022/09/25 02:30:32;;;;;;;25.67;20.17;;;;;;;;;;13043667;22;20023;-79
2022/09/25 02:35:33;;;;;;;31.00;22.67;;;;;;;;;;13026403;22;20016;-86
2022/09/25 02:40:36;;;;;;;25.70;20.60;;;;;;;;;;12982338;22;20419;-85
2022/09/25 02:46:01;;;;;;;28.30;21.15;;;;;;;;;;13011805;22;20028;-86
2022/09/25 02:51:02;;;;;;;26.35;19.10;;;;;;;;;;12980969;22;20020;-86
2022/09/25 02:56:15;;;;;;;32.08;23.02;;;;;;;;;;12992217;22;20019;-85
2022/09/25 03:01:17;;;;;;;30.23;22.52;;;;;;;;;;12992593;22;20027;-83
2022/09/25 03:06:17;;;;;;;28.60;20.17;;;;;;;;;;12966985;22;20019;-85
2022/09/25 03:11:20;;;;;;;29.02;21.25;;;;;;;;;;12969533;22;20102;-88
2022/09/25 03:16:40;;;;;;;27.42;20.33;;;;;;;;;;13000638;22;20465;-88
2022/09/25 03:21:43;;;;;;;26.60;19.70;;;;;;;;;;12982731;22;20008;-90
2022/09/25 03:26:45;;;;;;;28.67;20.33;;;;;;;;;;13035555;22;20003;-91
2022/09/25 03:31:48;;;;;;;;;;;;;;;;;;13017951;22;20014;-84
2022/09/25 03:36:48;;;;;;;26.77;20.90;;;;;;;;;;13000241;22;19917;-82
2022/09/25 03:41:50;;;;;;;28.42;20.27;;;;;;;;;;12998876;22;20000;-85
2022/09/25 03:47:12;;;;;;;26.52;20.25;;;;;;;;;;13001188;22;20011;-85
2022/09/25 03:52:14;;;;;;;31.60;23.75;;;;;;;;;;13011555;22;20079;-83
2022/09/25 03:57:20;;;;;;;35.78;24.80;;;;;;;;;;13038235;22;20015;-86
2022/09/25 04:02:22;;;;;;;33.83;23.48;;;;;;;;;;13013753;22;20087;-86
2022/09/25 04:07:23;;;;;;;32.38;23.42;;;;;;;;;;12998933;22;20008;-84
2022/09/25 04:12:23;;;;;;;28.70;21.33;;;;;;;;;;13026977;22;20028;-84
2022/09/25 04:17:24;;;;;;;29.48;21.75;;;;;;;;;;13012098;22;20034;-84
2022/09/25 04:22:25;;;;;;;29.10;21.80;;;;;;;;;;13004067;22;20007;-86
2022/09/25 04:27:26;;;;;;;31.95;22.52;;;;;;;;;;13004576;22;20008;-87
2022/09/25 04:37:48;;;;;;;27.13;20.27;;;;;;;;;;13004355;22;20018;-83
2022/09/25 04:42:53;;;;;;;31.88;22.50;;;;;;;;;;13015624;22;20015;-83
2022/09/25 04:47:54;;;;;;;31.67;23.00;;;;;;;;;;12987080;22;20022;-85
2022/09/25 04:52:55;;;;;;;29.98;21.52;;;;;;;;;;12974314;22;20020;-85
2022/09/25 04:57:57;;;;;;;39.10;24.00;;;;;;;;;;12970339;22;20008;-89
2022/09/25 05:02:57;;;;;;;35.22;23.20;;;;;;;;;;12941822;22;20019;-84
2022/09/25 05:07:59;;;;;;;35.05;22.55;;;;;;;;;;12994883;22;20007;-84
2022/09/25 05:13:00;;;;;;;34.60;23.23;;;;;;;;;;12995159;22;20015;-85
2022/09/25 05:18:01;;;;;;;30.98;21.48;;;;;;;;;;13002434;22;20018;-82
2022/09/25 05:23:04;;;;;;;31.15;20.95;;;;;;;;;;13034196;22;20011;-87
2022/09/25 05:28:09;;;;;;;34.75;22.77;;;;;;;;;;13004591;22;20020;-85
2022/09/25 05:33:16;;;;;;;30.20;21.30;;;;;;;;;;12973877;22;20016;-85
2022/09/25 05:38:17;;;;;;;32.75;21.63;;;;;;;;;;12976067;22;20016;-83
2022/09/25 05:43:31;;;;;;;32.78;23.85;;;;;;;;;;13000851;22;20037;-82
2022/09/25 05:48:40;;;;;;;31.83;21.75;;;;;;;;;;12969033;22;20050;-88
2022/09/25 05:54:04;;;;;;;35.50;23.43;;;;;;;;;;12956726;22;20020;-85
2022/09/25 05:59:06;;;;;;;39.42;25.08;;;;;;;;;;12929445;22;20063;-84
2022/09/25 06:04:07;;;;;;;34.13;23.13;;;;;;;;;;12987504;22;20012;-84
2022/09/25 06:09:17;;;;;;;36.35;23.95;;;;;;;;;;13011151;22;20023;-86
2022/09/25 06:14:20;;;;;;;36.13;24.10;;;;;;;;;;13015121;22;20143;-86
2022/09/25 06:19:22;;;;;;;34.30;23.20;;;;;;;;;;12976491;22;20022;-87
2022/09/25 06:24:24;;;;;;;38.25;24.75;;;;;;;;;;13012773;22;20011;-84
2022/09/25 06:29:26;;;;;;;;;;;;;;;;;;12944853;22;20011;-84
2022/09/25 06:34:28;;;;;;;35.25;24.17;;;;;;;;;;12973184;22;19950;-82
2022/09/25 06:39:32;;;;;;;40.30;24.73;;;;;;;;;;13010452;22;20010;-82
2022/09/25 06:44:33;;;;;;;33.97;22.67;;;;;;;;;;12999327;22;20043;-80
2022/09/25 06:49:34;;;;;;;35.00;23.38;;;;;;;;;;12969485;22;20016;-81
2022/09/25 06:54:35;;;;;;;36.10;23.47;;;;;;;;;;12999809;22;20007;-81
2022/09/25 06:59:36;;;;;;;32.33;20.77;;;;;;;;;;12996931;22;20245;-83
2022/09/25 07:04:36;;;;;;;33.28;22.45;;;;;;;;;;12960725;22;20086;-80
2022/09/25 07:09:37;;;;;;;32.70;21.60;;;;;;;;;;12986176;22;20015;-79
2022/09/25 07:14:37;;;;;;;35.10;24.25;;;;;;;;;;12957899;22;20254;-82
2022/09/25 07:19:38;;;;;;;35.90;24.33;;;;;;;;;;12985574;22;20057;-80
2022/09/25 07:24:38;;;;;;;39.53;23.87;;;;;;;;;;12986678;22;20018;-84
2022/09/25 07:29:39;;;;;;;39.50;23.80;;;;;;;;;;12960891;22;20275;-83
2022/09/25 07:34:41;;;;;;;33.92;22.17;;;;;;;;;;12947447;22;20008;-86
2022/09/25 07:39:43;;;;;;;34.87;22.63;;;;;;;;;;12974225;22;20387;-84
2022/09/25 07:44:45;;;;;;;36.97;21.80;;;;;;;;;;12977713;22;20022;-82
2022/09/25 07:49:46;;;;;;;37.05;21.90;;;;;;;;;;12999155;22;20015;-82
2022/09/25 07:54:46;;;;;;;39.85;24.38;;;;;;;;;;12995433;22;20019;-80
2022/09/25 07:59:47;;;;;;;46.95;24.77;;;;;;;;;;12993713;22;20011;-83
2022/09/25 08:04:47;;;;;;;38.13;21.77;;;;;;;;;;13001990;22;20007;-84
2022/09/25 08:09:48;;;;;;;39.58;24.20;;;;;;;;;;12962675;22;20069;-80
2022/09/25 08:14:53;;;;;;;38.95;21.92;;;;;;;;;;12997618;22;20749;-81
2022/09/25 08:19:53;;;;;;;35.05;22.48;;;;;;;;;;13025926;22;20007;-83
2022/09/25 08:24:54;;;;;;;32.73;20.67;;;;;;;;;;13031903;22;19991;-83
2022/09/25 08:29:55;;;;;;;39.58;22.75;;;;;;;;;;13013583;22;20492;-84
2022/09/25 08:34:56;;;;;;;37.40;22.67;;;;;;;;;;12995646;22;20008;-81
2022/09/25 08:39:57;;;;;;;33.73;19.00;;;;;;;;;;12989791;22;20317;-80
2022/09/25 08:50:21;;;;;;;35.60;21.20;;;;;;;;;;12997004;22;20027;-81
2022/09/25 08:56:13;;;;;;;35.57;22.20;;;;;;;;;;12985500;22;20004;-80
2022/09/25 09:00:46;;;;;;;33.10;21.33;;;;;;;;;;12986289;22;20027;-80
2022/09/25 09:05:50;;;;;;;31.30;20.00;;;;;;;;;;12990035;22;20023;-81
2022/09/25 09:10:52;;;;;;;34.72;20.50;;;;;;;;;;12992439;22;20016;-82
2022/09/25 09:16:01;;;;;;;34.47;19.83;;;;;;;;;;12984674;22;20081;-80
2022/09/25 09:21:21;;;;;;;33.10;20.10;;;;;;;;;;12985215;22;20011;-81
2022/09/25 09:26:33;;;;;;;32.05;19.15;;;;;;;;;;12991642;22;20078;-82
2022/09/25 09:31:40;;;;;;;32.70;19.48;;;;;;;;;;12938694;22;20027;-82
2022/09/25 09:36:40;;;;;;;30.30;18.33;;;;;;;;;;12990859;22;20011;-81
2022/09/25 09:41:42;;;;;;;28.83;18.00;;;;;;;;;;12967937;22;20012;-81
2022/09/25 09:46:48;;;;;;;23.13;15.63;;;;;;;;;;13011390;22;20022;-79
2022/09/25 09:51:53;;;;;;;28.17;18.02;;;;;;;;;;13015991;22;20015;-79
2022/09/25 09:56:55;;;;;;;27.55;18.95;;;;;;;;;;12846664;22;20011;-77
2022/09/25 10:02:07;;;;;;;25.50;16.97;;;;;;;;;;12953251;22;20274;-78
2022/09/25 10:07:10;;;;;;;24.77;16.20;;;;;;;;;;13002731;22;20007;-80
2022/09/25 10:12:13;;;;;;;23.77;15.52;;;;;;;;;;12995483;22;20045;-81
2022/09/25 10:17:15;;;;;;;22.88;15.63;;;;;;;;;;12955654;22;20023;-81
2022/09/25 10:22:19;;;;;;;24.20;16.17;;;;;;;;;;12986655;22;20011;-80
2022/09/25 10:27:21;;;;;;;19.92;14.57;;;;;;;;;;12974385;22;20012;-81
2022/09/25 10:32:21;;;;;;;13.48;9.98;;;;;;;;;;12979320;22;20016;-81
2022/09/25 10:37:28;;;;;;;15.88;10.90;;;;;;;;;;12988846;22;20011;-78
2022/09/25 10:42:34;;;;;;;19.80;14.05;;;;;;;;;;12982644;22;20323;-80
2022/09/25 10:52:57;;;;;;;16.65;11.27;;;;;;;;;;12952958;22;20023;-79
2022/09/25 10:58:08;;;;;;;17.63;12.20;;;;;;;;;;12983510;22;20399;-82
2022/09/25 11:03:13;;;;;;;17.15;12.32;;;;;;;;;;12986500;22;20015;-82
2022/09/25 11:08:15;;;;;;;16.30;12.68;;;;;;;;;;13009069;22;20011;-82
2022/09/25 11:13:23;;;;;;;4.10;3.70;;;;;;;;;;12997878;22;20016;-80
2022/09/25 11:18:33;;;;;;;2.67;2.15;;;;;;;;;;12995949;22;20011;-81
2022/09/25 11:23:46;;;;;;;2.97;2.63;;;;;;;;;;12986102;22;20008;-80
2022/09/25 11:28:56;;;;;;;4.40;2.70;;;;;;;;;;12961695;22;20012;-81
2022/09/25 11:34:32;;;;;;;6.03;2.80;;;;;;;;;;12985502;22;20086;-84
2022/09/25 11:45:35;;;;;;;5.63;3.67;;;;;;;;;;12908197;22;20011;-80
2022/09/25 11:50:54;;;;;;;4.38;3.28;;;;;;;;;;13037160;22;20008;-80
2022/09/25 11:56:14;;;;;;;5.13;3.10;;;;;;;;;;12982115;22;20034;-83
2022/09/25 12:01:26;;;;;;;7.40;3.85;;;;;;;;;;12965895;22;20008;-89
2022/09/25 12:06:38;;;;;;;4.68;4.20;;;;;;;;;;12959172;22;20388;-85
2022/09/25 12:11:44;;;;;;;6.85;4.32;;;;;;;;;;12989061;22;20024;-86
2022/09/25 12:17:04;;;;;;;6.40;4.00;;;;;;;;;;12973049;22;20037;-83
2022/09/25 12:22:25;;;;;;;5.05;3.83;;;;;;;;;;12997054;22;20018;-83
2022/09/25 12:27:36;;;;;;;6.38;4.13;;;;;;;;;;12947886;22;20029;-87
2022/09/25 12:33:00;;;;;;;7.18;4.20;;;;;;;;;;12890699;22;20024;-85
2022/09/25 12:38:10;;;;;;;9.80;6.05;;;;;;;;;;12900545;22;20019;-84
2022/09/25 12:43:28;;;;;;;4.32;3.92;;;;;;;;;;12972927;22;20023;-83
2022/09/25 12:48:55;;;;;;;4.00;3.30;;;;;;;;;;13016571;22;20020;-84
2022/09/25 12:54:05;;;;;;;7.00;4.07;;;;;;;;;;12955520;22;20035;-84
2022/09/25 12:59:25;;;;;;;5.85;4.93;;;;;;;;;;12932433;22;20043;-84
2022/09/25 13:04:25;;;;;;;5.45;4.53;;;;;;;;;;12997247;22;20140;-81
2022/09/25 13:09:45;;;;;;;5.83;4.73;;;;;;;;;;12987680;22;20008;-85
2022/09/25 13:14:57;;;;;;;5.18;4.30;;;;;;;;;;12929358;22;20031;-83
2022/09/25 13:20:16;;;;;;;6.22;4.75;;;;;;;;;;12949191;22;20012;-88
2022/09/25 13:25:17;;;;;;;5.22;4.10;;;;;;;;;;12957371;22;20383;-80
2022/09/25 13:30:26;;;;;;;6.80;5.40;;;;;;;;;;12982166;22;20007;-84
2022/09/25 13:35:28;;;;;;;7.78;6.25;;;;;;;;;;12984510;22;20012;-81
2022/09/25 13:40:41;;;;;;;12.95;9.70;;;;;;;;;;12981193;22;20008;-81
2022/09/25 13:45:42;;;;;;;8.45;5.28;;;;;;;;;;12998998;22;20012;-85
2022/09/25 13:50:44;;;;;;;7.22;5.05;;;;;;;;;;13004854;22;20439;-85
2022/09/25 13:55:53;;;;;;;8.60;6.60;;;;;;;;;;12969492;22;20012;-85
2022/09/25 14:00:56;;;;;;;11.05;7.35;;;;;;;;;;13001385;22;20086;-86
2022/09/25 14:05:57;;;;;;;10.68;8.13;;;;;;;;;;12976230;22;20439;-84
2022/09/25 14:16:27;;;;;;;9.27;7.70;;;;;;;;;;12725702;23;20010;-85
2022/09/25 14:21:37;;;;;;;8.40;6.85;;;;;;;;;;12705684;23;20076;-88
2022/09/25 14:26:56;;;;;;;9.63;7.00;;;;;;;;;;12812511;23;20021;-86
2022/09/25 14:32:15;;;;;;;9.10;7.28;;;;;;;;;;12807833;23;20021;-89
2022/09/25 14:37:35;;;;;;;10.23;7.35;;;;;;;;;;12881297;23;20015;-86
2022/09/25 14:42:40;;;;;;;12.30;8.90;;;;;;;;;;12876354;23;20035;-86
2022/09/25 14:47:43;;;;;;;10.52;7.53;;;;;;;;;;12857575;23;20003;-84
2022/09/25 14:52:48;;;;;;;8.68;6.70;;;;;;;;;;12882466;23;20017;-87
2022/09/25 15:09:46;;;;;;;9.85;7.85;;;;;;;;;;12956016;22;20079;-86
2022/09/25 15:15:05;;;;;;;9.43;7.30;;;;;;;;;;13013557;22;20014;-85
2022/09/25 15:31:07;;;;;;;9.13;7.37;;;;;;;;;;13004203;22;20016;-87
2022/09/25 15:41:34;;;;;;;8.95;7.13;;;;;;;;;;13008577;22;20035;-89
2022/09/25 15:46:39;;;;;;;10.30;8.03;;;;;;;;;;13004477;22;20035;-84
2022/09/25 15:51:43;;;;;;;10.70;7.63;;;;;;;;;;12957583;22;20883;-87
2022/09/25 15:56:46;;;;;;;9.77;6.90;;;;;;;;;;12955979;22;20026;-86
2022/09/25 16:07:38;;;;;;;9.77;7.65;;;;;;;;;;12905571;22;20079;-89
2022/09/25 16:12:44;;;;;;;13.38;9.30;;;;;;;;;;12998876;22;20119;-84
2022/09/25 16:17:46;;;;;;;12.57;9.32;;;;;;;;;;12989709;22;20012;-86
2022/09/25 16:22:50;;;;;;;10.27;8.25;;;;;;;;;;12988351;22;20012;-82
2022/09/25 16:27:52;;;;;;;11.38;8.45;;;;;;;;;;13029449;22;20015;-88
2022/09/25 16:33:06;;;;;;;10.20;7.88;;;;;;;;;;13043490;22;20008;-86
2022/09/25 16:38:24;;;;;;;9.65;8.15;;;;;;;;;;13040717;22;20078;-87
2022/09/25 16:43:29;;;;;;;10.40;8.57;;;;;;;;;;12999260;22;20047;-88
2022/09/25 16:48:40;;;;;;;10.65;8.60;;;;;;;;;;13029513;22;20000;-88
2022/09/25 16:59:09;;;;;;;10.43;9.20;;;;;;;;;;12999438;22;20086;-86
2022/09/25 17:04:10;;;;;;;11.35;9.57;;;;;;;;;;12971540;22;20016;-87
2022/09/25 17:09:11;;;;;;;15.00;11.27;;;;;;;;;;12988429;22;20022;-83
2022/09/25 17:14:21;;;;;;;16.42;11.13;;;;;;;;;;13001830;22;20011;-86
2022/09/25 17:19:22;;;;;;;13.10;9.30;;;;;;;;;;12987376;22;20091;-77
2022/09/25 17:24:25;;;;;;;12.13;9.57;;;;;;;;;;12981397;22;20403;-77
2022/09/25 17:29:26;;;;;;;16.00;10.50;;;;;;;;;;12985604;22;20521;-84
2022/09/25 17:34:29;;;;;;;10.75;7.68;;;;;;;;;;12947008;22;20062;-80
2022/09/25 17:39:29;;;;;;;12.17;8.80;;;;;;;;;;12982240;22;20069;-79
2022/09/25 17:44:29;;;;;;;10.63;8.90;;;;;;;;;;12957159;22;20012;-84
2022/09/25 17:49:31;;;;;;;11.05;8.32;;;;;;;;;;12957806;22;20023;-81
2022/09/25 17:54:32;;;;;;;10.10;8.03;;;;;;;;;;13000245;22;20046;-84
2022/09/25 17:59:34;;;;;;;11.67;9.40;;;;;;;;;;12985994;22;20008;-83
2022/09/25 18:04:35;;;;;;;15.80;10.15;;;;;;;;;;12985932;22;20011;-87
2022/09/25 18:09:35;;;;;;;13.77;10.05;;;;;;;;;;12925308;22;20039;-85
2022/09/25 18:25:40;;;;;;;11.80;9.20;;;;;;;;;;12963896;22;21309;-83
2022/09/25 18:30:42;;;;;;;12.35;9.32;;;;;;;;;;13017605;22;20011;-81
2022/09/25 18:35:42;;;;;;;12.93;9.23;;;;;;;;;;12972762;22;20042;-82
2022/09/25 18:40:43;;;;;;;11.50;8.15;;;;;;;;;;12989968;22;20042;-85
2022/09/25 18:45:49;;;;;;;9.70;7.63;;;;;;;;;;12956861;22;20018;-84
2022/09/25 18:50:53;;;;;;;9.55;7.97;;;;;;;;;;12986927;22;20012;-85
2022/09/25 18:55:58;;;;;;;10.60;7.90;;;;;;;;;;12996914;22;20011;-83
2022/09/25 19:00:59;;;;;;;9.15;7.72;;;;;;;;;;13009765;22;20069;-87
2022/09/25 19:06:03;;;;;;;11.40;9.02;;;;;;;;;;13017770;22;20016;-88
2022/09/25 19:11:15;;;;;;;12.90;9.30;;;;;;;;;;12961322;22;20103;-87
2022/09/25 19:21:35;;;;;;;11.20;8.27;;;;;;;;;;12893948;22;19996;-85
2022/09/25 19:26:41;;;;;;;10.38;8.93;;;;;;;;;;12933774;22;20023;-89
2022/09/25 19:31:42;;;;;;;10.80;8.50;;;;;;;;;;13010786;22;20047;-89
2022/09/25 19:36:48;;;;;;;9.10;8.23;;;;;;;;;;12935751;22;20028;-86
2022/09/25 19:47:30;;;;;;;7.90;7.07;;;;;;;;;;12964129;22;20011;-88
2022/09/25 19:52:32;;;;;;;9.05;7.88;;;;;;;;;;12989960;22;20022;-88
2022/09/25 19:57:33;;;;;;;10.07;8.25;;;;;;;;;;13002437;22;20012;-87
2022/09/25 20:02:36;;;;;;;10.30;7.93;;;;;;;;;;13016529;22;20051;-86
2022/09/25 20:12:43;;;;;;;11.10;9.32;;;;;;;;;;12725125;23;20014;-87
2022/09/25 20:28:31;;;;;;;8.98;7.45;;;;;;;;;;12917705;22;20023;-87
2022/09/25 20:33:34;;;;;;;7.03;6.28;;;;;;;;;;12966517;22;20016;-87
2022/09/25 20:38:35;;;;;;;11.15;6.95;;;;;;;;;;12941819;22;20019;-89
2022/09/25 20:43:37;;;;;;;8.75;6.80;;;;;;;;;;12941395;22;20022;-88
2022/09/25 20:48:46;;;;;;;8.20;6.78;;;;;;;;;;12997150;22;20012;-89
2022/09/25 20:53:50;;;;;;;9.35;7.53;;;;;;;;;;12972634;22;20015;-88
2022/09/25 20:58:56;;;;;;;10.32;8.02;;;;;;;;;;12985466;22;20024;-91
2022/09/25 21:04:00;;;;;;;10.18;7.47;;;;;;;;;;13043462;22;20021;-90
2022/09/25 21:09:22;;;;;;;9.35;7.65;;;;;;;;;;13027342;22;20081;-87
2022/09/25 21:14:26;;;;;;;12.20;7.57;;;;;;;;;;12993460;22;20011;-86
2022/09/25 21:19:28;;;;;;;;;;;;;;;;;;13020389;22;19996;-86
2022/09/25 21:24:29;;;;;;;10.07;7.72;;;;;;;;;;13031587;22;19907;-88
2022/09/25 21:29:32;;;;;;;12.10;7.03;;;;;;;;;;13029029;22;20020;-90
2022/09/25 21:34:47;;;;;;;9.40;6.83;;;;;;;;;;13017118;22;20024;-86
2022/09/25 21:45:07;;;;;;;7.70;6.90;;;;;;;;;;13045584;22;20059;-86
2022/09/25 21:50:34;;;;;;;7.75;6.28;;;;;;;;;;13042974;22;20090;-83
2022/09/25 21:56:11;;;;;;;8.18;5.97;;;;;;;;;;13020014;22;20016;-86
2022/09/25 22:01:22;;;;;;;8.63;6.38;;;;;;;;;;13004191;22;20007;-88
2022/09/25 22:12:29;;;;;;;10.68;8.25;;;;;;;;;;12962100;22;20028;-88
2022/09/25 22:17:54;;;;;;;10.63;7.82;;;;;;;;;;12890160;22;20020;-88
2022/09/25 22:23:19;;;;;;;12.70;8.40;;;;;;;;;;12917953;22;20016;-86
2022/09/25 22:40:10;;;;;;;9.63;6.05;;;;;;;;;;13043035;22;20000;-87
2022/09/25 22:45:45;;;;;;;8.60;5.95;;;;;;;;;;13040321;22;20319;-86
2022/09/25 23:08:05;;;;;;;7.40;6.03;;;;;;;;;;12840687;23;20401;-83
2022/09/25 23:13:10;;;;;;;6.65;5.85;;;;;;;;;;12784270;23;20017;-84
2022/09/25 23:23:25;;;;;;;7.03;5.93;;;;;;;;;;12841130;23;20001;-83
2022/09/25 23:28:30;;;;;;;10.32;5.70;;;;;;;;;;12802163;23;20448;-83
2022/09/25 23:33:39;;;;;;;6.65;5.55;;;;;;;;;;12832546;23;20013;-82
2022/09/25 23:38:49;;;;;;;8.40;5.88;;;;;;;;;;12810077;23;20024;-83
2022/09/25 23:44:09;;;;;;;7.70;6.22;;;;;;;;;;12828303;23;20738;-83
2022/09/25 23:49:21;;;;;;;8.02;6.43;;;;;;;;;;12889959;23;20084;-83
2022/09/25 23:54:29;;;;;;;7.32;5.70;;;;;;;;;;12861411;23;20005;-83
2022/09/25 23:59:29;;;;;;;8.15;6.15;;;;;;;;;;12822865;23;20016;-78
